createdAt,value
2018-08-04T00:01:25.998Z,31.87
2018-08-04T00:03:54.258Z,23.20
2018-08-04T00:06:22.457Z,26.77
2018-08-04T00:08:50.670Z,26.83
2018-08-04T00:11:18.950Z,28.40
2018-08-04T00:13:47.109Z,26.83
2018-08-04T00:16:15.335Z,25.67
2018-08-04T00:18:43.558Z,27.40
2018-08-04T00:21:11.763Z,40.13
2018-08-04T00:23:40.043Z,28.83
2018-08-04T00:26:08.319Z,25.97
2018-08-04T00:28:36.497Z,36.67
2018-08-04T00:31:04.705Z,27.60
2018-08-04T00:33:32.941Z,25.73
2018-08-04T00:36:01.133Z,24.50
2018-08-04T00:38:29.343Z,24.77
2018-08-04T00:40:57.531Z,31.40
2018-08-04T00:43:25.689Z,24.07
2018-08-04T00:45:53.870Z,22.33
2018-08-04T00:48:22.047Z,28.73
2018-08-04T00:50:50.255Z,25.03
2018-08-04T00:53:18.441Z,22.80
2018-08-04T00:55:46.671Z,31.23
2018-08-04T00:58:14.853Z,28.73
2018-08-04T01:00:43.082Z,28.60
2018-08-04T01:03:11.271Z,38.87
2018-08-04T01:05:39.509Z,28.70
2018-08-04T01:08:07.771Z,24.30
2018-08-04T01:10:35.955Z,26.40
2018-08-04T01:13:04.163Z,26.67
2018-08-04T01:15:32.359Z,23.20
2018-08-04T01:18:00.270Z,28.53
2018-08-04T01:20:28.442Z,26.63
2018-08-04T01:22:56.675Z,22.60
2018-08-04T01:25:24.845Z,24.17
2018-08-04T01:27:52.793Z,24.03
2018-08-04T01:30:20.966Z,28.77
2018-08-04T01:32:49.195Z,25.87
2018-08-04T01:35:17.371Z,23.63
2018-08-04T01:37:45.552Z,27.20
2018-08-04T01:40:13.774Z,25.43
2018-08-04T01:42:42.052Z,28.60
2018-08-04T01:45:10.218Z,28.13
2018-08-04T01:47:38.465Z,24.40
2018-08-04T01:50:06.655Z,30.93
2018-08-04T01:52:34.922Z,28.80
2018-08-04T01:55:03.090Z,22.87
2018-08-04T01:57:31.340Z,29.63
2018-08-04T01:59:59.556Z,23.97
2018-08-04T02:02:27.723Z,29.87
2018-08-04T02:04:55.966Z,25.80
2018-08-04T02:07:24.234Z,26.37
2018-08-04T02:09:52.423Z,22.17
2018-08-04T02:12:20.735Z,24.37
2018-08-04T02:14:48.908Z,28.30
2018-08-04T02:17:17.120Z,21.43
2018-08-04T02:19:45.351Z,32.03
2018-08-04T02:22:13.286Z,22.97
2018-08-04T02:24:41.470Z,24.43
2018-08-04T02:27:09.734Z,21.80
2018-08-04T02:29:37.939Z,19.57
2018-08-04T02:32:06.259Z,30.47
2018-08-04T02:34:34.438Z,22.60
2018-08-04T02:37:02.657Z,30.90
2018-08-04T02:39:30.967Z,22.47
2018-08-04T02:41:59.139Z,28.27
2018-08-04T02:44:27.413Z,25.30
2018-08-04T02:46:55.628Z,26.17
2018-08-04T02:49:23.966Z,37.10
2018-08-04T02:51:52.169Z,28.93
2018-08-04T02:54:20.368Z,30.67
2018-08-04T02:56:48.575Z,28.80
2018-08-04T02:59:16.749Z,27.50
2018-08-04T03:01:44.975Z,22.53
2018-08-04T03:04:13.148Z,26.07
2018-08-04T03:06:41.414Z,25.00
2018-08-04T03:09:11.415Z,26.90
2018-08-04T03:11:39.907Z,28.70
2018-08-04T03:14:08.173Z,28.87
2018-08-04T03:16:36.393Z,24.00
2018-08-04T03:19:04.627Z,23.07
2018-08-04T03:21:32.912Z,27.20
2018-08-04T03:24:01.110Z,32.30
2018-08-04T03:26:29.318Z,23.27
2018-08-04T03:28:57.550Z,26.47
2018-08-04T03:31:25.775Z,25.73
2018-08-04T03:33:53.987Z,26.27
2018-08-04T03:36:22.159Z,27.63
2018-08-04T03:38:50.398Z,22.87
2018-08-04T03:41:18.582Z,20.83
2018-08-04T03:43:46.769Z,29.10
2018-08-04T03:46:14.981Z,23.13
2018-08-04T03:48:43.174Z,23.63
2018-08-04T03:51:11.401Z,26.87
2018-08-04T03:53:39.666Z,26.77
2018-08-04T03:56:07.874Z,21.10
2018-08-04T03:58:36.110Z,22.87
2018-08-04T04:01:04.341Z,24.70
2018-08-04T04:03:32.519Z,20.43
2018-08-04T04:06:00.696Z,25.33
2018-08-04T04:08:28.938Z,29.00
2018-08-04T04:13:31.999Z,23.40
2018-08-04T04:16:00.186Z,21.10
2018-08-04T04:18:28.407Z,18.60
2018-08-04T04:20:56.639Z,20.60
2018-08-04T04:23:24.835Z,19.30
2018-08-04T04:25:53.178Z,25.33
2018-08-04T04:28:21.116Z,21.37
2018-08-04T04:30:49.309Z,24.07
2018-08-04T04:33:17.554Z,23.30
2018-08-04T04:35:45.802Z,23.07
2018-08-04T04:38:14.031Z,22.70
2018-08-04T04:40:42.262Z,23.53
2018-08-04T04:43:10.477Z,24.50
2018-08-04T04:45:38.792Z,27.90
2018-08-04T04:48:07.013Z,22.70
2018-08-04T04:50:35.250Z,24.97
2018-08-04T04:53:03.572Z,25.20
2018-08-04T04:55:31.882Z,31.73
2018-08-04T04:58:00.028Z,25.77
2018-08-04T05:00:28.319Z,25.27
2018-08-04T05:02:56.523Z,23.80
2018-08-04T05:05:24.808Z,25.63
2018-08-04T05:07:53.026Z,24.43
2018-08-04T05:10:21.268Z,29.90
2018-08-04T05:12:50.366Z,24.97
2018-08-04T05:15:18.569Z,26.83
2018-08-04T05:17:46.816Z,23.33
2018-08-04T05:20:15.012Z,26.33
2018-08-04T05:22:43.244Z,26.10
2018-08-04T05:25:11.438Z,24.93
2018-08-04T05:27:39.678Z,24.67
2018-08-04T05:30:07.869Z,29.13
2018-08-04T05:32:36.174Z,25.20
2018-08-04T05:35:04.498Z,22.80
2018-08-04T05:37:32.742Z,26.30
2018-08-04T05:40:00.886Z,36.77
2018-08-04T05:42:29.058Z,25.20
2018-08-04T05:44:57.264Z,21.00
2018-08-04T05:47:25.503Z,21.67
2018-08-04T05:49:53.678Z,23.20
2018-08-04T05:52:21.946Z,22.70
2018-08-04T05:54:50.165Z,21.07
2018-08-04T05:57:18.386Z,23.33
2018-08-04T05:59:46.602Z,21.40
2018-08-04T06:02:14.802Z,22.03
2018-08-04T06:04:43.050Z,19.40
2018-08-04T06:07:11.331Z,21.50
2018-08-04T06:09:39.589Z,22.80
2018-08-04T06:12:07.860Z,20.37
2018-08-04T06:14:36.064Z,20.60
2018-08-04T06:17:04.294Z,18.40
2018-08-04T06:19:32.481Z,19.63
2018-08-04T06:22:00.717Z,18.20
2018-08-04T06:24:28.897Z,23.80
2018-08-04T06:26:57.140Z,22.13
2018-08-04T06:29:25.375Z,21.47
2018-08-04T06:31:54.106Z,21.13
2018-08-04T06:34:22.310Z,25.90
2018-08-04T06:36:50.489Z,18.80
2018-08-04T06:39:18.871Z,20.43
2018-08-04T06:41:47.112Z,17.83
2018-08-04T06:44:15.281Z,19.30
2018-08-04T06:46:43.514Z,19.47
2018-08-04T06:49:11.706Z,26.93
2018-08-04T06:51:39.955Z,17.70
2018-08-04T06:54:08.124Z,18.70
2018-08-04T06:56:36.429Z,17.50
2018-08-04T06:59:04.659Z,15.67
2018-08-04T07:01:32.871Z,15.00
2018-08-04T07:04:01.142Z,17.73
2018-08-04T07:06:29.289Z,20.93
2018-08-04T07:08:57.505Z,33.57
2018-08-04T07:11:25.705Z,17.40
2018-08-04T07:13:53.946Z,19.00
2018-08-04T07:16:22.170Z,19.77
2018-08-04T07:18:50.363Z,23.80
2018-08-04T07:21:18.556Z,15.97
2018-08-04T07:23:46.718Z,17.83
2018-08-04T07:26:14.974Z,16.40
2018-08-04T07:28:43.259Z,17.80
2018-08-04T07:31:11.222Z,13.10
2018-08-04T07:33:39.474Z,17.70
2018-08-04T07:36:07.658Z,18.13
2018-08-04T07:38:35.934Z,15.40
2018-08-04T07:41:03.965Z,19.40
2018-08-04T07:43:32.114Z,18.13
2018-08-04T07:46:06.816Z,13.43
2018-08-04T07:48:35.121Z,24.43
2018-08-04T07:51:03.329Z,19.10
2018-08-04T07:53:31.499Z,17.00
2018-08-04T07:55:59.698Z,17.57
2018-08-04T07:58:27.912Z,15.77
2018-08-04T08:00:56.208Z,18.20
2018-08-04T08:03:24.449Z,24.13
2018-08-04T08:05:52.616Z,17.73
2018-08-04T08:08:20.802Z,15.20
2018-08-04T08:10:49.249Z,15.80
2018-08-04T08:13:17.403Z,25.03
2018-08-04T08:15:45.674Z,14.17
2018-08-04T08:18:13.867Z,21.00
2018-08-04T08:20:42.026Z,15.80
2018-08-04T08:23:10.253Z,14.10
2018-08-04T08:25:38.472Z,19.50
2018-08-04T08:28:06.749Z,16.20
2018-08-04T08:30:34.961Z,15.03
2018-08-04T08:33:03.159Z,15.53
2018-08-04T08:35:31.398Z,15.83
2018-08-04T08:37:59.638Z,15.97
2018-08-04T08:40:27.847Z,15.30
2018-08-04T08:42:56.066Z,14.93
2018-08-04T08:45:24.249Z,16.37
2018-08-04T08:47:52.513Z,13.93
2018-08-04T08:50:20.737Z,18.20
2018-08-04T08:52:48.921Z,15.77
2018-08-04T08:55:17.082Z,15.73
2018-08-04T08:57:45.245Z,23.13
2018-08-04T09:00:13.417Z,14.37
2018-08-04T09:02:41.673Z,16.93
2018-08-04T09:05:10.608Z,16.53
2018-08-04T09:07:38.927Z,13.13
2018-08-04T09:10:10.590Z,15.70
2018-08-04T09:12:38.823Z,11.43
2018-08-04T09:15:07.487Z,22.87
2018-08-04T09:17:35.694Z,19.07
2018-08-04T09:20:04.398Z,18.93
2018-08-04T09:22:34.227Z,15.30
2018-08-04T09:25:02.424Z,18.07
2018-08-04T09:27:30.677Z,12.40
2018-08-04T09:29:58.845Z,19.40
2018-08-04T09:32:27.048Z,13.43
2018-08-04T09:34:55.229Z,10.60
2018-08-04T09:37:23.432Z,13.77
2018-08-04T09:39:51.366Z,13.63
2018-08-04T09:42:19.546Z,14.27
2018-08-04T09:44:47.733Z,9.70
2018-08-04T09:47:15.937Z,12.53
2018-08-04T09:49:44.121Z,14.93
2018-08-04T09:52:13.421Z,15.00
2018-08-04T09:54:41.622Z,10.43
2018-08-04T09:57:09.793Z,14.50
2018-08-04T09:59:38.060Z,12.50
2018-08-04T10:02:10.416Z,11.50
2018-08-04T10:04:38.789Z,22.00
2018-08-04T10:07:07.339Z,15.40
2018-08-04T10:09:35.498Z,19.30
2018-08-04T10:12:03.712Z,20.27
2018-08-04T10:14:32.595Z,13.93
2018-08-04T10:17:01.056Z,18.70
2018-08-04T10:19:29.263Z,12.13
2018-08-04T10:21:57.585Z,17.17
2018-08-04T10:24:25.544Z,20.30
2018-08-04T10:26:54.752Z,9.90
2018-08-04T10:29:22.986Z,12.73
2018-08-04T10:31:51.317Z,19.33
2018-08-04T10:34:19.567Z,13.67
2018-08-04T10:36:47.786Z,19.80
2018-08-04T10:39:16.158Z,13.40
2018-08-04T10:41:44.463Z,16.40
2018-08-04T10:44:12.884Z,12.20
2018-08-04T10:46:41.099Z,18.07
2018-08-04T10:49:09.429Z,13.90
2018-08-04T10:51:37.874Z,12.80
2018-08-04T10:54:06.185Z,13.70
2018-08-04T10:56:34.489Z,11.33
2018-08-04T10:59:02.717Z,13.13
2018-08-04T11:01:31.049Z,10.17
2018-08-04T11:03:59.263Z,24.63
2018-08-04T11:06:27.698Z,12.80
2018-08-04T11:08:55.939Z,10.20
2018-08-04T11:11:23.910Z,10.77
2018-08-04T11:13:52.217Z,9.97
2018-08-04T11:16:20.522Z,12.40
2018-08-04T11:18:48.837Z,10.87
2018-08-04T11:21:17.064Z,13.23
2018-08-04T11:23:45.378Z,16.20
2018-08-04T11:26:13.631Z,11.67
2018-08-04T11:28:41.867Z,10.60
2018-08-04T11:31:10.083Z,13.23
2018-08-04T11:33:38.265Z,8.77
2018-08-04T11:36:06.604Z,13.87
2018-08-04T11:38:34.954Z,15.90
2018-08-04T11:41:03.158Z,22.67
2018-08-04T11:43:31.120Z,9.50
2018-08-04T11:45:59.447Z,9.40
2018-08-04T11:48:27.648Z,12.33
2018-08-04T11:50:55.626Z,8.67
2018-08-04T11:53:23.874Z,8.37
2018-08-04T11:55:52.065Z,7.87
2018-08-04T11:58:20.039Z,6.87
2018-08-04T12:00:48.230Z,9.37
2018-08-04T12:03:16.530Z,10.30
2018-08-04T12:05:44.736Z,8.73
2018-08-04T12:08:12.942Z,6.77
2018-08-04T12:10:41.149Z,8.77
2018-08-04T12:13:09.390Z,12.03
2018-08-04T12:15:37.657Z,8.57
2018-08-04T12:18:05.936Z,13.17
2018-08-04T12:20:34.612Z,7.10
2018-08-04T12:23:03.073Z,9.00
2018-08-04T12:25:31.303Z,12.73
2018-08-04T12:27:59.523Z,9.73
2018-08-04T12:30:27.820Z,9.40
2018-08-04T12:32:56.067Z,6.27
2018-08-04T12:35:24.301Z,7.90
2018-08-04T12:37:52.578Z,10.27
2018-08-04T12:40:20.841Z,7.90
2018-08-04T12:42:49.090Z,9.27
2018-08-04T12:45:17.420Z,6.70
2018-08-04T12:47:45.668Z,8.40
2018-08-04T12:50:14.007Z,8.20
2018-08-04T12:52:42.296Z,11.70
2018-08-04T12:55:10.554Z,9.13
2018-08-04T12:57:38.733Z,8.10
2018-08-04T13:00:07.706Z,6.53
2018-08-04T13:02:35.939Z,10.40
2018-08-04T13:05:04.571Z,8.93
2018-08-04T13:07:32.855Z,8.17
2018-08-04T13:10:01.071Z,9.40
2018-08-04T13:12:29.451Z,8.23
2018-08-04T13:14:57.666Z,10.13
2018-08-04T13:17:25.934Z,8.43
2018-08-04T13:19:54.717Z,7.67
2018-08-04T13:22:22.959Z,9.77
2018-08-04T13:24:51.223Z,12.00
2018-08-04T13:27:19.502Z,9.33
2018-08-04T13:29:47.864Z,11.83
2018-08-04T13:32:16.628Z,11.67
2018-08-04T13:34:44.822Z,8.57
2018-08-04T13:37:13.048Z,7.03
2018-08-04T13:39:41.391Z,10.80
2018-08-04T13:42:09.633Z,9.57
2018-08-04T13:44:37.640Z,10.67
2018-08-04T13:47:05.727Z,20.47
2018-08-04T13:49:33.950Z,10.70
2018-08-04T13:52:02.210Z,10.83
2018-08-04T13:54:30.458Z,8.77
2018-08-04T13:56:58.713Z,11.10
2018-08-04T13:59:26.981Z,10.60
2018-08-04T14:01:55.665Z,6.53
2018-08-04T14:04:23.889Z,10.90
2018-08-04T14:06:52.198Z,8.33
2018-08-04T14:09:20.418Z,9.33
2018-08-04T14:11:48.628Z,14.07
2018-08-04T14:14:16.813Z,7.13
2018-08-04T14:16:45.035Z,7.83
2018-08-04T14:19:13.314Z,8.13
2018-08-04T14:21:41.560Z,10.70
2018-08-04T14:24:09.740Z,10.70
2018-08-04T14:26:38.055Z,14.30
2018-08-04T14:29:06.354Z,6.60
2018-08-04T14:31:34.585Z,16.00
2018-08-04T14:34:02.811Z,13.70
2018-08-04T14:36:31.031Z,12.27
2018-08-04T14:38:59.212Z,6.03
2018-08-04T14:41:27.466Z,6.53
2018-08-04T14:43:55.664Z,16.57
2018-08-04T14:46:23.896Z,8.37
2018-08-04T14:48:51.926Z,6.90
2018-08-04T14:51:20.192Z,7.70
2018-08-04T14:53:48.495Z,13.33
2018-08-04T14:56:16.760Z,9.93
2018-08-04T14:58:45.021Z,6.30
2018-08-04T15:01:13.317Z,5.63
2018-08-04T15:03:41.550Z,5.93
2018-08-04T15:06:09.851Z,10.43
2018-08-04T15:08:38.038Z,5.40
2018-08-04T15:11:06.611Z,8.10
2018-08-04T15:13:34.970Z,7.57
2018-08-04T15:16:03.156Z,5.27
2018-08-04T15:18:31.409Z,6.43
2018-08-04T15:20:59.566Z,6.03
2018-08-04T15:23:27.761Z,11.33
2018-08-04T15:25:56.040Z,9.63
2018-08-04T15:28:24.229Z,5.63
2018-08-04T15:30:52.430Z,6.90
2018-08-04T15:33:20.613Z,7.00
2018-08-04T15:35:48.836Z,6.20
2018-08-04T15:38:17.038Z,6.03
2018-08-04T15:40:45.265Z,6.03
2018-08-04T15:43:13.479Z,7.43
2018-08-04T15:45:41.730Z,5.63
2018-08-04T15:48:10.200Z,6.83
2018-08-04T15:50:38.322Z,6.60
2018-08-04T15:53:06.437Z,6.13
2018-08-04T15:55:34.714Z,5.67
2018-08-04T15:58:02.906Z,4.83
2018-08-04T16:00:31.159Z,8.53
2018-08-04T16:02:59.505Z,11.17
2018-08-04T16:05:27.744Z,9.13
2018-08-04T16:07:56.118Z,6.00
2018-08-04T16:10:24.376Z,10.97
2018-08-04T16:12:52.605Z,6.00
2018-08-04T16:15:20.790Z,5.30
2018-08-04T16:17:49.193Z,9.70
2018-08-04T16:20:18.809Z,7.30
2018-08-04T16:22:47.102Z,5.63
2018-08-04T16:25:15.786Z,6.60
2018-08-04T16:27:44.060Z,10.27
2018-08-04T16:30:12.295Z,9.10
2018-08-04T16:32:40.968Z,6.77
2018-08-04T16:35:09.747Z,5.27
2018-08-04T16:37:37.808Z,9.20
2018-08-04T16:40:06.470Z,12.37
2018-08-04T16:42:35.094Z,6.90
2018-08-04T16:45:03.909Z,8.80
2018-08-04T16:47:32.168Z,5.83
2018-08-04T16:50:00.437Z,5.67
2018-08-04T16:52:28.649Z,14.50
2018-08-04T16:54:56.837Z,8.30
2018-08-04T16:57:24.913Z,10.93
2018-08-04T16:59:53.148Z,7.40
2018-08-04T17:02:21.410Z,6.77
2018-08-04T17:04:49.610Z,13.40
2018-08-04T17:07:17.833Z,10.27
2018-08-04T17:09:46.059Z,9.83
2018-08-04T17:12:14.389Z,10.00
2018-08-04T17:14:42.607Z,9.57
2018-08-04T17:17:10.801Z,7.90
2018-08-04T17:19:39.046Z,9.20
2018-08-04T17:22:07.311Z,9.20
2018-08-04T17:24:35.498Z,5.23
2018-08-04T17:27:03.766Z,7.30
2018-08-04T17:29:31.999Z,8.00
2018-08-04T17:32:00.258Z,13.50
2018-08-04T17:34:28.774Z,8.40
2018-08-04T17:36:56.989Z,7.60
2018-08-04T17:39:25.137Z,9.23
2018-08-04T17:41:53.494Z,12.77
2018-08-04T17:44:21.805Z,10.90
2018-08-04T17:46:49.986Z,7.87
2018-08-04T17:49:18.261Z,13.03
2018-08-04T17:51:46.592Z,10.70
2018-08-04T17:54:14.815Z,21.23
2018-08-04T17:56:42.989Z,10.30
2018-08-04T17:59:11.318Z,13.63
2018-08-04T18:01:39.510Z,8.90
2018-08-04T18:04:07.819Z,13.33
2018-08-04T18:06:36.107Z,9.77
2018-08-04T18:09:07.935Z,10.40
2018-08-04T18:11:36.319Z,11.47
2018-08-04T18:14:04.744Z,21.83
2018-08-04T18:16:32.938Z,19.13
2018-08-04T18:19:01.368Z,27.93
2018-08-04T18:21:30.163Z,14.50
2018-08-04T18:23:58.928Z,19.73
2018-08-04T18:26:27.885Z,14.77
2018-08-04T18:28:56.283Z,14.77
2018-08-04T18:31:24.673Z,31.00
2018-08-04T18:33:53.342Z,10.43
2018-08-04T18:36:21.687Z,11.93
2018-08-04T18:38:50.663Z,14.30
2018-08-04T18:41:19.723Z,12.70
2018-08-04T18:43:48.615Z,8.60
2018-08-04T18:46:17.782Z,10.87
2018-08-04T18:48:45.791Z,10.17
2018-08-04T18:51:18.292Z,16.03
2018-08-04T18:53:47.084Z,14.00
2018-08-04T18:56:17.964Z,12.70
2018-08-04T18:58:57.199Z,20.47
2018-08-04T19:01:25.975Z,12.43
2018-08-04T19:03:54.585Z,30.43
2018-08-04T19:06:23.814Z,23.43
2018-08-04T19:08:52.424Z,22.73
2018-08-04T19:11:20.661Z,10.00
2018-08-04T19:13:49.893Z,20.57
2018-08-04T19:16:18.062Z,18.77
2018-08-04T19:18:46.391Z,12.10
2018-08-04T19:21:14.880Z,23.00
2018-08-04T19:23:43.436Z,12.10
2018-08-04T19:26:11.874Z,24.73
2018-08-04T19:28:40.415Z,16.83
2018-08-04T19:31:08.984Z,13.10
2018-08-04T19:33:37.448Z,15.60
2018-08-04T19:36:05.706Z,13.77
2018-08-04T19:38:33.810Z,21.90
2018-08-04T19:41:02.156Z,13.23
2018-08-04T19:43:30.452Z,13.20
2018-08-04T19:45:58.781Z,14.63
2018-08-04T19:48:27.285Z,11.23
2018-08-04T19:50:55.445Z,17.20
2018-08-04T19:53:23.782Z,24.93
2018-08-04T19:55:52.258Z,13.43
2018-08-04T19:58:20.583Z,15.13
2018-08-04T20:00:48.626Z,12.53
2018-08-04T20:03:16.770Z,15.67
2018-08-04T20:05:45.732Z,15.70
2018-08-04T20:08:14.089Z,13.60
2018-08-04T20:10:42.371Z,24.07
2018-08-04T20:13:10.680Z,11.13
2018-08-04T20:15:39.122Z,13.90
2018-08-04T20:18:07.678Z,12.50
2018-08-04T20:20:36.138Z,12.70
2018-08-04T20:23:04.666Z,11.10
2018-08-04T20:25:33.279Z,11.03
2018-08-04T20:28:01.665Z,18.57
2018-08-04T20:30:29.943Z,13.93
2018-08-04T20:32:58.245Z,13.50
2018-08-04T20:35:26.638Z,13.37
2018-08-04T20:37:55.101Z,12.27
2018-08-04T20:40:23.707Z,13.77
2018-08-04T20:42:52.170Z,13.80
2018-08-04T20:45:21.030Z,18.07
2018-08-04T20:47:49.459Z,16.87
2018-08-04T20:50:17.751Z,12.60
2018-08-04T20:52:46.238Z,14.70
2018-08-04T20:55:14.677Z,17.23
2018-08-04T20:57:42.897Z,17.20
2018-08-04T21:00:11.094Z,17.20
2018-08-04T21:02:39.445Z,16.97
2018-08-04T21:05:07.692Z,12.57
2018-08-04T21:07:35.955Z,17.53
2018-08-04T21:10:04.474Z,14.43
2018-08-04T21:12:32.417Z,14.70
2018-08-04T21:15:00.638Z,14.27
2018-08-04T21:17:28.858Z,13.40
2018-08-04T21:19:57.104Z,37.83
2018-08-04T21:22:25.397Z,16.33
2018-08-04T21:24:53.769Z,11.37
2018-08-04T21:27:22.255Z,12.93
2018-08-04T21:29:50.609Z,15.23
2018-08-04T21:32:19.462Z,12.17
2018-08-04T21:34:48.488Z,15.63
2018-08-04T21:37:16.925Z,10.77
2018-08-04T21:39:45.346Z,13.43
2018-08-04T21:42:13.677Z,21.33
2018-08-04T21:44:42.309Z,17.27
2018-08-04T21:47:10.699Z,11.00
2018-08-04T21:49:38.952Z,11.90
2018-08-04T21:52:07.310Z,11.23
2018-08-04T21:54:35.532Z,16.53
2018-08-04T21:57:03.724Z,13.70
2018-08-04T21:59:31.914Z,15.70
2018-08-04T22:02:00.158Z,14.80
2018-08-04T22:04:28.080Z,11.53
2018-08-04T22:08:06.571Z,14.83
2018-08-04T22:10:34.810Z,18.40
2018-08-04T22:13:03.078Z,13.20
2018-08-04T22:15:31.212Z,13.80
2018-08-04T22:17:59.237Z,11.00
2018-08-04T22:20:28.171Z,18.73
2018-08-04T22:25:34.956Z,17.40
2018-08-04T22:28:03.234Z,18.60
2018-08-04T22:30:31.622Z,17.60
2018-08-04T22:32:59.997Z,13.50
2018-08-04T22:35:28.893Z,14.80
2018-08-04T22:37:57.295Z,13.07
2018-08-04T22:40:25.566Z,12.73
2018-08-04T22:42:54.026Z,16.57
2018-08-04T22:46:25.613Z,17.30
2018-08-04T22:48:54.743Z,17.80
2018-08-04T22:51:25.291Z,14.60
2018-08-04T22:53:53.719Z,13.13
2018-08-04T22:56:22.041Z,23.30
2018-08-04T22:58:50.405Z,15.00
2018-08-04T23:01:19.441Z,13.10
2018-08-04T23:03:47.892Z,15.27
2018-08-04T23:06:16.184Z,14.63
2018-08-04T23:08:44.598Z,13.70
2018-08-04T23:11:12.915Z,16.43
2018-08-04T23:13:41.317Z,19.17
2018-08-04T23:16:09.445Z,17.70
2018-08-04T23:18:37.811Z,30.03
2018-08-04T23:21:06.521Z,15.80
2018-08-04T23:23:34.876Z,16.57
2018-08-04T23:26:03.404Z,16.00
2018-08-04T23:28:31.774Z,20.97
2018-08-04T23:31:00.220Z,16.67
2018-08-04T23:33:28.638Z,17.17
2018-08-04T23:35:57.007Z,27.07
2018-08-04T23:38:25.476Z,19.27
2018-08-04T23:40:54.943Z,15.60
2018-08-04T23:43:23.324Z,17.97
2018-08-04T23:45:51.711Z,17.93
2018-08-04T23:48:19.814Z,21.73
2018-08-04T23:50:47.893Z,20.50
2018-08-04T23:53:16.397Z,18.07
2018-08-04T23:55:44.796Z,18.40
2018-08-04T23:58:13.232Z,17.20
